createdAt,value
2023-01-17T00:00:57.604Z,1.90
2023-01-17T00:03:47.943Z,2.58
2023-01-17T00:07:00.529Z,1.73
2023-01-17T00:09:50.717Z,3.28
2023-01-17T00:12:39.273Z,3.80
2023-01-17T00:15:14.834Z,2.70
2023-01-17T00:17:51.404Z,3.30
2023-01-17T00:21:04.570Z,6.25
2023-01-17T00:24:00.766Z,3.90
2023-01-17T00:26:55.225Z,3.85
2023-01-17T00:29:50.048Z,8.50
2023-01-17T00:32:44.355Z,4.28
2023-01-17T00:35:19.157Z,3.83
2023-01-17T00:38:25.714Z,5.20
2023-01-17T00:41:09.638Z,4.40
2023-01-17T00:44:02.206Z,6.13
2023-01-17T00:46:49.548Z,4.65
2023-01-17T00:49:35.725Z,6.30
2023-01-17T00:52:21.517Z,3.78
2023-01-17T00:55:14.945Z,4.97
2023-01-17T00:58:15.025Z,4.57
2023-01-17T01:01:07.160Z,4.18
2023-01-17T01:04:02.072Z,5.35
2023-01-17T01:07:08.928Z,3.25
2023-01-17T01:10:01.154Z,5.05
2023-01-17T01:12:53.041Z,8.97
2023-01-17T01:15:44.439Z,3.67
2023-01-17T01:18:39.215Z,5.47
2023-01-17T01:21:30.700Z,6.13
2023-01-17T01:24:31.720Z,5.45
2023-01-17T01:27:48.146Z,5.37
2023-01-17T01:30:35.754Z,5.25
2023-01-17T01:33:36.524Z,7.68
2023-01-17T01:39:02.421Z,6.97
2023-01-17T01:41:45.668Z,7.37
2023-01-17T01:45:10.177Z,9.18
2023-01-17T01:47:49.457Z,7.90
2023-01-17T01:50:32.735Z,5.18
2023-01-17T01:53:16.303Z,11.57
2023-01-17T01:55:57.459Z,9.07
2023-01-17T01:58:45.630Z,6.85
2023-01-17T02:01:23.781Z,7.63
2023-01-17T02:04:05.043Z,9.45
2023-01-17T02:06:49.372Z,10.68
2023-01-17T02:09:30.293Z,8.10
2023-01-17T02:12:20.356Z,5.28
2023-01-17T02:14:50.043Z,7.80
2023-01-17T02:17:48.314Z,7.22
2023-01-17T02:21:00.296Z,10.02
2023-01-17T02:23:36.445Z,6.43
2023-01-17T02:26:37.352Z,6.68
2023-01-17T02:29:38.358Z,15.60
2023-01-17T02:32:26.064Z,7.38
2023-01-17T02:35:28.214Z,6.95
2023-01-17T02:38:36.740Z,7.37
2023-01-17T02:41:22.841Z,6.75
2023-01-17T02:44:03.315Z,10.65
2023-01-17T02:46:52.487Z,8.77
2023-01-17T02:49:43.796Z,6.30
2023-01-17T02:52:51.264Z,8.03
2023-01-17T02:56:17.979Z,9.13
2023-01-17T02:59:38.416Z,6.53
2023-01-17T03:03:21.219Z,7.70
2023-01-17T03:06:12.397Z,9.38
2023-01-17T03:08:59.744Z,8.80
2023-01-17T03:11:52.904Z,6.88
2023-01-17T03:14:41.494Z,8.20
2023-01-17T03:17:26.911Z,5.82
2023-01-17T03:20:21.590Z,7.00
2023-01-17T03:22:55.393Z,7.03
2023-01-17T03:25:36.538Z,7.15
2023-01-17T03:28:08.550Z,6.97
2023-01-17T03:34:17.994Z,6.80
2023-01-17T03:37:01.193Z,6.53
2023-01-17T03:39:51.033Z,7.22
2023-01-17T03:42:50.749Z,6.78
2023-01-17T03:46:01.266Z,7.43
2023-01-17T03:48:35.662Z,6.10
2023-01-17T03:51:28.491Z,6.43
2023-01-17T03:54:18.812Z,6.68
2023-01-17T03:57:25.331Z,9.00
2023-01-17T04:00:09.289Z,8.38
2023-01-17T04:02:59.253Z,6.68
2023-01-17T04:05:34.651Z,9.03
2023-01-17T04:08:11.889Z,9.25
2023-01-17T04:10:57.483Z,9.68
2023-01-17T04:14:02.302Z,6.75
2023-01-17T04:16:49.860Z,6.45
2023-01-17T04:19:31.864Z,14.97
2023-01-17T04:25:01.646Z,11.77
2023-01-17T04:28:08.869Z,6.85
2023-01-17T04:31:05.606Z,8.32
2023-01-17T04:33:59.586Z,8.07
2023-01-17T04:36:35.027Z,8.68
2023-01-17T04:39:26.823Z,9.05
2023-01-17T04:42:11.958Z,9.02
2023-01-17T04:44:57.771Z,6.10
2023-01-17T04:47:41.922Z,8.13
2023-01-17T04:50:19.633Z,10.35
2023-01-17T04:53:09.255Z,8.20
2023-01-17T04:55:57.759Z,10.07
2023-01-17T04:58:49.077Z,7.60
2023-01-17T05:01:44.020Z,10.73
2023-01-17T05:04:11.591Z,6.65
2023-01-17T05:06:52.740Z,10.20
2023-01-17T05:09:42.410Z,9.43
2023-01-17T05:12:41.457Z,7.55
2023-01-17T05:15:21.840Z,8.00
2023-01-17T05:18:10.053Z,9.65
2023-01-17T05:21:00.099Z,17.67
2023-01-17T05:23:36.047Z,7.40
2023-01-17T05:27:05.353Z,6.60
2023-01-17T05:29:37.976Z,8.67
2023-01-17T05:32:19.125Z,7.15
2023-01-17T05:35:14.780Z,7.72
2023-01-17T05:37:58.365Z,10.02
2023-01-17T05:40:35.205Z,9.52
2023-01-17T05:43:13.203Z,8.03
2023-01-17T05:45:52.572Z,8.45
2023-01-17T05:48:29.434Z,11.25
2023-01-17T05:51:01.805Z,7.53
2023-01-17T05:53:33.970Z,8.45
2023-01-17T05:56:20.827Z,11.87
2023-01-17T05:59:14.116Z,12.35
2023-01-17T06:01:54.596Z,8.50
2023-01-17T06:04:28.330Z,7.13
2023-01-17T06:07:14.395Z,7.72
2023-01-17T06:10:30.382Z,11.23
2023-01-17T06:13:27.517Z,10.57
2023-01-17T06:16:05.393Z,10.05
2023-01-17T06:18:39.582Z,8.30
2023-01-17T06:22:27.822Z,12.73
2023-01-17T06:24:37.762Z,16.33
2023-01-17T06:27:30.488Z,6.20
2023-01-17T06:30:14.355Z,16.65
2023-01-17T06:33:08.380Z,7.82
2023-01-17T06:36:00.981Z,11.18
2023-01-17T06:38:44.278Z,6.77
2023-01-17T06:41:50.016Z,8.48
2023-01-17T06:51:26.599Z,10.20
2023-01-17T06:54:52.385Z,9.40
2023-01-17T06:57:11.189Z,12.95
2023-01-17T06:59:52.299Z,6.13
2023-01-17T07:02:36.662Z,8.15
2023-01-17T07:06:14.113Z,10.70
2023-01-17T07:08:11.063Z,11.77
2023-01-17T07:11:05.118Z,8.25
2023-01-17T07:14:36.363Z,10.35
2023-01-17T07:17:48.160Z,8.23
2023-01-17T07:20:42.860Z,9.60
2023-01-17T07:23:58.519Z,10.37
2023-01-17T07:26:55.414Z,7.97
2023-01-17T07:29:30.341Z,9.57
2023-01-17T07:32:16.069Z,12.00
2023-01-17T07:35:35.509Z,8.45
2023-01-17T07:38:20.574Z,14.07
2023-01-17T07:41:08.449Z,13.23
2023-01-17T07:44:08.663Z,16.60
2023-01-17T07:46:54.137Z,15.07
2023-01-17T07:53:08.269Z,11.00
2023-01-17T08:00:03.721Z,15.98
2023-01-17T08:03:21.100Z,12.27
2023-01-17T08:06:48.936Z,11.50
2023-01-17T08:09:30.843Z,13.67
2023-01-17T08:12:42.728Z,19.70
2023-01-17T08:15:39.491Z,20.75
2023-01-17T08:18:24.555Z,12.68
2023-01-17T08:21:11.503Z,14.32
2023-01-17T08:24:02.518Z,16.57
2023-01-17T08:27:13.148Z,13.27
2023-01-17T08:30:14.992Z,17.88
2023-01-17T08:33:35.237Z,13.88
2023-01-17T08:36:23.639Z,16.80
2023-01-17T08:42:13.547Z,14.75
2023-01-17T08:45:37.942Z,13.60
2023-01-17T08:48:23.711Z,16.55
2023-01-17T08:51:33.095Z,23.95
2023-01-17T08:57:09.427Z,22.65
2023-01-17T09:03:26.614Z,15.18
2023-01-17T09:06:17.398Z,21.25
2023-01-17T09:09:14.978Z,18.53
2023-01-17T09:12:13.910Z,28.52
2023-01-17T09:14:57.864Z,16.73
2023-01-17T09:18:03.564Z,20.45
2023-01-17T09:21:11.803Z,16.27
2023-01-17T09:24:07.118Z,15.13
2023-01-17T09:26:58.803Z,15.57
2023-01-17T09:31:26.132Z,20.80
2023-01-17T09:33:46.848Z,14.13
2023-01-17T09:40:20.931Z,13.77
2023-01-17T09:42:50.955Z,14.45
2023-01-17T09:45:25.462Z,16.90
2023-01-17T09:47:58.957Z,18.63
2023-01-17T09:50:54.513Z,17.15
2023-01-17T09:53:30.775Z,14.27
2023-01-17T09:56:40.395Z,17.67
2023-01-17T10:00:02.673Z,17.80
2023-01-17T10:03:20.594Z,16.88
2023-01-17T10:06:09.195Z,16.70
2023-01-17T10:09:32.428Z,22.90
2023-01-17T10:12:18.829Z,15.77
2023-01-17T10:15:16.430Z,15.85
2023-01-17T10:18:01.592Z,18.05
2023-01-17T10:20:54.680Z,15.18
2023-01-17T10:24:16.648Z,13.77
2023-01-17T10:26:56.315Z,13.10
2023-01-17T10:29:28.071Z,15.68
2023-01-17T10:32:02.519Z,18.38
2023-01-17T10:34:44.485Z,14.15
2023-01-17T10:37:43.715Z,15.97
2023-01-17T10:40:24.884Z,15.50
2023-01-17T10:43:34.306Z,13.05
2023-01-17T10:46:02.513Z,10.55
2023-01-17T10:48:47.982Z,14.07
2023-01-17T10:51:50.527Z,9.90
2023-01-17T10:54:37.042Z,14.18
2023-01-17T10:57:04.488Z,14.00
2023-01-17T10:59:37.259Z,19.33
2023-01-17T11:02:25.211Z,15.95
2023-01-17T11:04:55.968Z,11.90
2023-01-17T11:07:28.875Z,13.48
2023-01-17T11:09:59.122Z,14.65
2023-01-17T11:12:37.204Z,9.50
2023-01-17T11:15:10.208Z,9.00
2023-01-17T11:17:48.977Z,8.07
2023-01-17T11:20:28.659Z,11.68
2023-01-17T11:23:04.845Z,13.63
2023-01-17T11:25:34.127Z,8.60
2023-01-17T11:28:08.399Z,8.48
2023-01-17T11:30:35.738Z,8.00
2023-01-17T11:33:47.203Z,23.27
2023-01-17T11:36:33.164Z,12.18
2023-01-17T11:39:17.629Z,8.98
2023-01-17T11:41:52.170Z,19.38
2023-01-17T11:44:27.105Z,11.57
2023-01-17T11:47:19.017Z,17.63
2023-01-17T11:49:50.151Z,7.63
2023-01-17T11:52:23.571Z,6.88
2023-01-17T11:54:54.115Z,6.40
2023-01-17T11:57:34.834Z,5.13
2023-01-17T12:00:24.875Z,7.53
2023-01-17T12:03:36.758Z,8.20
2023-01-17T12:06:17.994Z,8.63
2023-01-17T12:08:58.401Z,8.35
2023-01-17T12:12:41.401Z,11.63
2023-01-17T12:15:30.232Z,5.57
2023-01-17T12:18:30.605Z,11.15
2023-01-17T12:21:08.967Z,7.53
2023-01-17T12:23:57.136Z,6.90
2023-01-17T12:26:56.901Z,3.63
2023-01-17T12:29:46.282Z,4.13
2023-01-17T12:32:46.505Z,7.55
2023-01-17T12:35:42.223Z,4.70
2023-01-17T12:38:27.346Z,2.72
2023-01-17T12:41:24.339Z,2.57
2023-01-17T12:43:59.103Z,5.80
2023-01-17T12:46:44.315Z,5.70
2023-01-17T12:49:46.685Z,3.53
2023-01-17T12:52:47.180Z,4.05
2023-01-17T12:55:26.783Z,7.43
2023-01-17T12:58:00.792Z,2.17
2023-01-17T13:00:32.723Z,2.15
2023-01-17T13:03:46.863Z,5.88
2023-01-17T13:09:53.672Z,2.83
2023-01-17T13:12:49.914Z,5.68
2023-01-17T13:15:27.661Z,2.22
2023-01-17T13:18:06.692Z,4.30
2023-01-17T13:21:08.890Z,4.10
2023-01-17T13:23:56.223Z,1.90
2023-01-17T13:26:56.356Z,3.55
2023-01-17T13:30:09.261Z,3.25
2023-01-17T13:33:34.192Z,2.65
2023-01-17T13:36:35.193Z,4.53
2023-01-17T13:39:29.668Z,1.70
2023-01-17T13:42:23.744Z,2.58
2023-01-17T13:44:51.221Z,2.47
2023-01-17T13:47:18.244Z,4.20
2023-01-17T13:49:53.463Z,2.72
2023-01-17T13:52:20.515Z,7.30
2023-01-17T13:54:50.124Z,3.95
2023-01-17T13:57:23.721Z,5.72
2023-01-17T13:59:52.344Z,4.20
2023-01-17T14:02:35.571Z,2.13
2023-01-17T14:05:43.967Z,1.70
2023-01-17T14:08:28.058Z,4.22
2023-01-17T14:11:17.075Z,10.68
2023-01-17T14:13:52.688Z,25.80
2023-01-17T14:16:29.255Z,6.60
2023-01-17T14:18:59.030Z,1.60
2023-01-17T14:21:38.013Z,3.88
2023-01-17T14:24:14.327Z,1.75
2023-01-17T14:26:44.017Z,2.25
2023-01-17T14:29:44.016Z,6.75
2023-01-17T14:32:19.121Z,3.17
2023-01-17T14:34:57.405Z,4.05
2023-01-17T14:37:51.940Z,3.50
2023-01-17T14:40:30.717Z,7.22
2023-01-17T14:43:18.368Z,2.95
2023-01-17T14:45:46.222Z,3.67
2023-01-17T14:48:20.815Z,3.83
2023-01-17T14:50:54.720Z,2.50
2023-01-17T14:53:28.056Z,4.30
2023-01-17T14:56:15.018Z,6.45
2023-01-17T14:58:44.520Z,5.27
2023-01-17T15:01:21.492Z,3.60
2023-01-17T15:03:53.901Z,6.38
2023-01-17T15:06:38.771Z,12.20
2023-01-17T15:09:12.384Z,2.42
2023-01-17T15:11:41.131Z,5.07
2023-01-17T15:14:18.975Z,2.60
2023-01-17T15:16:46.229Z,3.97
2023-01-17T15:19:15.198Z,3.30
2023-01-17T15:21:46.606Z,3.63
2023-01-17T15:24:23.441Z,7.93
2023-01-17T15:26:52.152Z,4.25
2023-01-17T15:29:31.264Z,4.32
2023-01-17T15:32:22.071Z,7.47
2023-01-17T15:34:59.736Z,8.32
2023-01-17T15:37:39.924Z,7.60
2023-01-17T15:40:21.180Z,4.40
2023-01-17T15:43:16.219Z,3.35
2023-01-17T16:01:18.306Z,3.83
2023-01-17T16:04:37.084Z,2.70
2023-01-17T16:07:35.405Z,2.72
2023-01-17T16:13:12.891Z,3.50
2023-01-17T16:15:42.920Z,7.60
2023-01-17T16:39:15.983Z,3.58
2023-01-17T18:13:20.434Z,11.77
2023-01-17T18:16:07.128Z,15.05
2023-01-17T18:19:17.333Z,13.52
2023-01-17T18:21:54.474Z,17.20
2023-01-17T18:24:32.020Z,21.00
2023-01-17T18:27:20.871Z,24.38
2023-01-17T18:30:55.840Z,28.55
2023-01-17T18:33:30.505Z,32.07
2023-01-17T18:36:55.696Z,29.17
2023-01-17T18:42:14.341Z,36.10
2023-01-17T18:44:43.399Z,30.40
2023-01-17T18:47:13.472Z,29.47
2023-01-17T18:49:43.096Z,35.13
2023-01-17T18:52:12.204Z,36.22
2023-01-17T18:54:39.514Z,31.40
2023-01-17T18:57:10.638Z,25.27
2023-01-17T18:59:38.014Z,26.02
2023-01-17T19:02:09.910Z,23.85
2023-01-17T19:04:39.644Z,23.65
2023-01-17T19:07:15.448Z,33.10
2023-01-17T19:09:46.528Z,39.38
2023-01-17T19:12:20.656Z,46.72
2023-01-17T19:14:48.396Z,42.58
2023-01-17T19:17:18.150Z,34.53
2023-01-17T19:19:56.547Z,21.17
2023-01-17T19:22:33.594Z,28.42
2023-01-17T19:25:14.887Z,27.13
2023-01-17T19:27:53.590Z,21.55
2023-01-17T19:31:04.418Z,30.35
2023-01-17T19:34:09.789Z,31.23
2023-01-17T19:36:46.389Z,28.05
2023-01-17T19:39:35.309Z,30.13
2023-01-17T19:45:24.896Z,34.20
2023-01-17T19:48:12.688Z,29.17
2023-01-17T19:50:42.610Z,29.10
2023-01-17T19:53:29.208Z,33.87
2023-01-17T19:56:30.066Z,33.00
2023-01-17T19:59:58.911Z,32.63
2023-01-17T20:02:44.417Z,28.50
2023-01-17T20:05:16.614Z,40.67
2023-01-17T20:08:02.634Z,29.63
2023-01-17T20:10:42.083Z,28.45
2023-01-17T20:13:15.583Z,26.75
2023-01-17T20:16:08.296Z,28.85
2023-01-17T20:18:51.668Z,24.10
2023-01-17T20:21:32.921Z,26.00
2023-01-17T20:24:23.468Z,22.80
2023-01-17T20:27:28.233Z,27.63
2023-01-17T20:30:20.023Z,23.88
2023-01-17T20:32:50.774Z,21.30
2023-01-17T20:35:26.926Z,28.15
2023-01-17T20:38:08.879Z,19.85
2023-01-17T20:40:59.425Z,21.88
2023-01-17T20:43:37.099Z,23.50
2023-01-17T20:46:19.767Z,22.23
2023-01-17T20:49:23.322Z,19.77
2023-01-17T20:51:53.196Z,21.17
2023-01-17T20:54:46.414Z,13.80
2023-01-17T20:57:16.057Z,19.70
2023-01-17T20:59:55.809Z,15.15
2023-01-17T21:02:27.884Z,21.25
2023-01-17T21:05:00.529Z,20.73
2023-01-17T21:07:37.936Z,23.35
2023-01-17T21:10:11.144Z,22.08
2023-01-17T21:12:52.014Z,26.75
2023-01-17T21:15:30.272Z,24.33
2023-01-17T21:18:11.209Z,22.80
2023-01-17T21:21:06.450Z,21.85
2023-01-17T21:23:53.688Z,26.23
2023-01-17T21:26:44.759Z,28.10
2023-01-17T21:29:27.321Z,28.40
2023-01-17T21:31:56.379Z,34.22
2023-01-17T21:34:43.779Z,37.15
2023-01-17T21:37:22.952Z,41.75
2023-01-17T21:40:19.952Z,30.75
2023-01-17T21:42:55.267Z,37.90
2023-01-17T21:45:36.737Z,37.78
2023-01-17T21:49:12.062Z,38.53
2023-01-17T21:51:57.337Z,30.90
2023-01-17T21:54:50.491Z,34.33
2023-01-17T21:57:43.044Z,30.03
2023-01-17T22:01:19.087Z,25.70
2023-01-17T22:04:21.742Z,28.25
2023-01-17T22:07:04.773Z,34.92
2023-01-17T22:13:02.956Z,37.80
2023-01-17T22:15:36.864Z,28.27
2023-01-17T22:18:15.360Z,32.33
2023-01-17T22:20:50.733Z,34.42
2023-01-17T22:23:59.612Z,35.33
2023-01-17T22:26:32.721Z,23.70
2023-01-17T22:29:13.191Z,36.08
2023-01-17T22:31:40.752Z,27.23
2023-01-17T22:34:13.856Z,24.85
2023-01-17T22:36:50.083Z,35.47
2023-01-17T22:39:17.486Z,26.27
2023-01-17T22:41:53.578Z,33.15
2023-01-17T22:44:40.547Z,33.28
2023-01-17T22:47:36.831Z,28.02
2023-01-17T22:50:13.304Z,29.70
2023-01-17T22:52:45.692Z,31.33
2023-01-17T22:55:15.432Z,31.55
2023-01-17T22:57:55.197Z,31.30
2023-01-17T23:00:34.119Z,30.90
2023-01-17T23:03:27.537Z,30.60
2023-01-17T23:06:26.468Z,26.93
2023-01-17T23:09:04.603Z,31.85
2023-01-17T23:11:41.109Z,28.98
2023-01-17T23:14:17.108Z,26.40
2023-01-17T23:17:16.453Z,27.73
2023-01-17T23:19:52.599Z,31.90
2023-01-17T23:22:29.227Z,27.50
2023-01-17T23:25:07.078Z,28.17
2023-01-17T23:27:57.439Z,32.70
2023-01-17T23:30:45.477Z,30.42
2023-01-17T23:33:24.822Z,30.57
2023-01-17T23:36:07.415Z,24.27
2023-01-17T23:38:45.185Z,29.58
2023-01-17T23:41:35.551Z,29.25
2023-01-17T23:44:32.987Z,25.73
2023-01-17T23:47:13.797Z,25.83
2023-01-17T23:49:44.793Z,28.90
2023-01-17T23:52:14.528Z,34.85
2023-01-17T23:54:49.286Z,29.27
2023-01-17T23:57:23.774Z,33.58
